sensor_id;sensor_type;location;lat;lon;timestamp;P1;durP1;ratioP1;P2;durP2;ratioP2
18776;SDS011;9517;51.174;4.160;2023-11-21T00:01:25;84.37;;;35.83;;
18776;SDS011;9517;51.174;4.160;2023-11-21T00:03:52;79.07;;;34.83;;
18776;SDS011;9517;51.174;4.160;2023-11-21T00:06:20;74.63;;;34.00;;
18776;SDS011;9517;51.174;4.160;2023-11-21T00:08:47;71.93;;;32.27;;
18776;SDS011;9517;51.174;4.160;2023-11-21T00:11:15;74.67;;;32.73;;
18776;SDS011;9517;51.174;4.160;2023-11-21T00:13:42;80.33;;;33.30;;
18776;SDS011;9517;51.174;4.160;2023-11-21T00:16:10;93.93;;;34.90;;
18776;SDS011;9517;51.174;4.160;2023-11-21T00:18:37;67.87;;;29.87;;
18776;SDS011;9517;51.174;4.160;2023-11-21T00:21:05;68.17;;;30.83;;
18776;SDS011;9517;51.174;4.160;2023-11-21T00:23:32;74.73;;;32.70;;
18776;SDS011;9517;51.174;4.160;2023-11-21T00:25:59;69.20;;;31.20;;
18776;SDS011;9517;51.174;4.160;2023-11-21T00:28:28;70.83;;;30.60;;
18776;SDS011;9517;51.174;4.160;2023-11-21T00:30:55;62.00;;;27.93;;
18776;SDS011;9517;51.174;4.160;2023-11-21T00:33:22;72.83;;;29.80;;
18776;SDS011;9517;51.174;4.160;2023-11-21T00:35:50;70.13;;;28.93;;
18776;SDS011;9517;51.174;4.160;2023-11-21T00:38:17;71.33;;;28.87;;
18776;SDS011;9517;51.174;4.160;2023-11-21T00:40:45;65.73;;;29.17;;
18776;SDS011;9517;51.174;4.160;2023-11-21T00:43:12;65.47;;;27.53;;
18776;SDS011;9517;51.174;4.160;2023-11-21T00:45:41;67.33;;;29.33;;
18776;SDS011;9517;51.174;4.160;2023-11-21T00:48:08;66.77;;;26.97;;
18776;SDS011;9517;51.174;4.160;2023-11-21T00:50:37;62.87;;;28.03;;
18776;SDS011;9517;51.174;4.160;2023-11-21T00:53:04;63.53;;;29.77;;
18776;SDS011;9517;51.174;4.160;2023-11-21T00:55:32;71.57;;;28.10;;
18776;SDS011;9517;51.174;4.160;2023-11-21T00:58:00;68.50;;;28.53;;
18776;SDS011;9517;51.174;4.160;2023-11-21T01:00:28;70.17;;;28.73;;
18776;SDS011;9517;51.174;4.160;2023-11-21T01:02:57;80.30;;;30.50;;
18776;SDS011;9517;51.174;4.160;2023-11-21T01:05:24;68.57;;;29.73;;
18776;SDS011;9517;51.174;4.160;2023-11-21T01:07:51;64.73;;;28.73;;
18776;SDS011;9517;51.174;4.160;2023-11-21T01:10:18;60.53;;;27.03;;
18776;SDS011;9517;51.174;4.160;2023-11-21T01:12:45;66.90;;;28.07;;
18776;SDS011;9517;51.174;4.160;2023-11-21T01:15:14;68.60;;;28.90;;
18776;SDS011;9517;51.174;4.160;2023-11-21T01:17:41;69.57;;;28.80;;
18776;SDS011;9517;51.174;4.160;2023-11-21T01:20:10;67.40;;;27.80;;
18776;SDS011;9517;51.174;4.160;2023-11-21T01:22:37;70.70;;;27.40;;
18776;SDS011;9517;51.174;4.160;2023-11-21T01:25:05;65.40;;;27.80;;
18776;SDS011;9517;51.174;4.160;2023-11-21T01:27:33;73.97;;;27.50;;
18776;SDS011;9517;51.174;4.160;2023-11-21T01:30:01;73.40;;;28.87;;
18776;SDS011;9517;51.174;4.160;2023-11-21T01:32:28;64.13;;;26.93;;
18776;SDS011;9517;51.174;4.160;2023-11-21T01:34:55;62.33;;;27.13;;
18776;SDS011;9517;51.174;4.160;2023-11-21T01:37:24;65.00;;;27.10;;
18776;SDS011;9517;51.174;4.160;2023-11-21T01:39:53;62.40;;;27.37;;
18776;SDS011;9517;51.174;4.160;2023-11-21T01:42:21;67.20;;;25.67;;
18776;SDS011;9517;51.174;4.160;2023-11-21T01:44:48;70.47;;;27.37;;
18776;SDS011;9517;51.174;4.160;2023-11-21T01:47:15;65.27;;;27.37;;
18776;SDS011;9517;51.174;4.160;2023-11-21T01:49:43;67.77;;;27.80;;
18776;SDS011;9517;51.174;4.160;2023-11-21T01:52:11;75.63;;;27.47;;
18776;SDS011;9517;51.174;4.160;2023-11-21T01:54:41;68.50;;;27.43;;
18776;SDS011;9517;51.174;4.160;2023-11-21T01:57:08;67.47;;;28.13;;
18776;SDS011;9517;51.174;4.160;2023-11-21T01:59:36;71.47;;;28.97;;
18776;SDS011;9517;51.174;4.160;2023-11-21T02:02:04;64.27;;;27.83;;
18776;SDS011;9517;51.174;4.160;2023-11-21T02:04:31;61.33;;;28.53;;
18776;SDS011;9517;51.174;4.160;2023-11-21T02:06:59;71.23;;;29.10;;
18776;SDS011;9517;51.174;4.160;2023-11-21T02:09:26;66.60;;;27.93;;
18776;SDS011;9517;51.174;4.160;2023-11-21T02:11:56;65.90;;;28.47;;
18776;SDS011;9517;51.174;4.160;2023-11-21T02:14:23;62.17;;;26.13;;
18776;SDS011;9517;51.174;4.160;2023-11-21T02:16:52;60.37;;;26.83;;
18776;SDS011;9517;51.174;4.160;2023-11-21T02:19:20;67.63;;;28.43;;
18776;SDS011;9517;51.174;4.160;2023-11-21T02:21:50;68.17;;;27.33;;
18776;SDS011;9517;51.174;4.160;2023-11-21T02:24:20;61.03;;;27.07;;
18776;SDS011;9517;51.174;4.160;2023-11-21T02:26:48;59.73;;;26.23;;
18776;SDS011;9517;51.174;4.160;2023-11-21T02:29:16;60.83;;;27.20;;
18776;SDS011;9517;51.174;4.160;2023-11-21T02:31:47;58.57;;;27.00;;
18776;SDS011;9517;51.174;4.160;2023-11-21T02:34:14;59.83;;;26.13;;
18776;SDS011;9517;51.174;4.160;2023-11-21T02:36:41;60.47;;;27.57;;
18776;SDS011;9517;51.174;4.160;2023-11-21T02:39:08;64.47;;;27.20;;
18776;SDS011;9517;51.174;4.160;2023-11-21T02:41:38;63.50;;;26.63;;
18776;SDS011;9517;51.174;4.160;2023-11-21T02:44:05;60.10;;;27.03;;
18776;SDS011;9517;51.174;4.160;2023-11-21T02:46:32;63.07;;;26.33;;
18776;SDS011;9517;51.174;4.160;2023-11-21T02:49:00;62.03;;;26.53;;
18776;SDS011;9517;51.174;4.160;2023-11-21T02:51:27;64.03;;;26.17;;
18776;SDS011;9517;51.174;4.160;2023-11-21T02:53:54;62.07;;;28.33;;
18776;SDS011;9517;51.174;4.160;2023-11-21T02:56:24;64.00;;;27.10;;
18776;SDS011;9517;51.174;4.160;2023-11-21T02:58:55;61.10;;;26.93;;
18776;SDS011;9517;51.174;4.160;2023-11-21T03:01:22;59.43;;;26.77;;
18776;SDS011;9517;51.174;4.160;2023-11-21T03:03:50;62.73;;;27.43;;
18776;SDS011;9517;51.174;4.160;2023-11-21T03:06:17;65.90;;;28.07;;
18776;SDS011;9517;51.174;4.160;2023-11-21T03:08:44;59.67;;;27.80;;
18776;SDS011;9517;51.174;4.160;2023-11-21T03:11:11;59.30;;;27.77;;
18776;SDS011;9517;51.174;4.160;2023-11-21T03:13:39;63.07;;;28.33;;
18776;SDS011;9517;51.174;4.160;2023-11-21T03:16:08;61.43;;;27.97;;
18776;SDS011;9517;51.174;4.160;2023-11-21T03:18:35;62.73;;;28.07;;
18776;SDS011;9517;51.174;4.160;2023-11-21T03:21:02;70.73;;;28.93;;
18776;SDS011;9517;51.174;4.160;2023-11-21T03:23:30;65.17;;;28.00;;
18776;SDS011;9517;51.174;4.160;2023-11-21T03:25:57;62.80;;;29.03;;
18776;SDS011;9517;51.174;4.160;2023-11-21T03:28:25;61.53;;;29.50;;
18776;SDS011;9517;51.174;4.160;2023-11-21T03:30:52;62.90;;;29.97;;
18776;SDS011;9517;51.174;4.160;2023-11-21T03:33:21;65.70;;;29.30;;
18776;SDS011;9517;51.174;4.160;2023-11-21T03:35:48;64.63;;;28.47;;
18776;SDS011;9517;51.174;4.160;2023-11-21T03:38:15;63.83;;;30.07;;
18776;SDS011;9517;51.174;4.160;2023-11-21T03:40:42;63.50;;;29.33;;
18776;SDS011;9517;51.174;4.160;2023-11-21T03:43:09;58.40;;;29.17;;
18776;SDS011;9517;51.174;4.160;2023-11-21T03:45:36;68.63;;;29.33;;
18776;SDS011;9517;51.174;4.160;2023-11-21T03:48:05;61.17;;;28.80;;
18776;SDS011;9517;51.174;4.160;2023-11-21T03:50:34;75.97;;;30.63;;
18776;SDS011;9517;51.174;4.160;2023-11-21T03:53:01;60.90;;;28.97;;
18776;SDS011;9517;51.174;4.160;2023-11-21T03:55:28;68.47;;;29.17;;
18776;SDS011;9517;51.174;4.160;2023-11-21T03:57:56;65.73;;;29.43;;
18776;SDS011;9517;51.174;4.160;2023-11-21T04:00:24;79.53;;;31.53;;
18776;SDS011;9517;51.174;4.160;2023-11-21T04:02:52;71.67;;;30.20;;
18776;SDS011;9517;51.174;4.160;2023-11-21T04:05:20;64.87;;;30.57;;
18776;SDS011;9517;51.174;4.160;2023-11-21T04:07:50;61.40;;;29.10;;
18776;SDS011;9517;51.174;4.160;2023-11-21T04:10:17;57.97;;;29.43;;
18776;SDS011;9517;51.174;4.160;2023-11-21T04:12:44;63.03;;;29.70;;
18776;SDS011;9517;51.174;4.160;2023-11-21T04:15:12;64.10;;;29.03;;
18776;SDS011;9517;51.174;4.160;2023-11-21T04:17:39;58.93;;;28.77;;
18776;SDS011;9517;51.174;4.160;2023-11-21T04:20:07;58.57;;;28.93;;
18776;SDS011;9517;51.174;4.160;2023-11-21T04:22:36;64.07;;;30.53;;
18776;SDS011;9517;51.174;4.160;2023-11-21T04:25:09;66.97;;;29.47;;
18776;SDS011;9517;51.174;4.160;2023-11-21T04:27:38;66.67;;;29.77;;
18776;SDS011;9517;51.174;4.160;2023-11-21T04:30:05;72.87;;;28.80;;
18776;SDS011;9517;51.174;4.160;2023-11-21T04:32:34;61.07;;;27.57;;
18776;SDS011;9517;51.174;4.160;2023-11-21T04:35:02;66.70;;;28.60;;
18776;SDS011;9517;51.174;4.160;2023-11-21T04:37:29;63.23;;;28.60;;
18776;SDS011;9517;51.174;4.160;2023-11-21T04:39:56;63.73;;;28.73;;
18776;SDS011;9517;51.174;4.160;2023-11-21T04:42:25;67.97;;;28.70;;
18776;SDS011;9517;51.174;4.160;2023-11-21T04:44:52;62.57;;;28.27;;
18776;SDS011;9517;51.174;4.160;2023-11-21T04:47:19;62.20;;;28.23;;
18776;SDS011;9517;51.174;4.160;2023-11-21T04:49:46;69.13;;;28.53;;
18776;SDS011;9517;51.174;4.160;2023-11-21T04:52:14;62.87;;;28.13;;
18776;SDS011;9517;51.174;4.160;2023-11-21T04:54:41;65.10;;;28.97;;
18776;SDS011;9517;51.174;4.160;2023-11-21T04:57:08;70.37;;;29.47;;
18776;SDS011;9517;51.174;4.160;2023-11-21T04:59:36;65.07;;;28.07;;
18776;SDS011;9517;51.174;4.160;2023-11-21T05:02:04;62.03;;;29.10;;
18776;SDS011;9517;51.174;4.160;2023-11-21T05:04:31;61.40;;;29.87;;
18776;SDS011;9517;51.174;4.160;2023-11-21T05:06:58;60.50;;;28.43;;
18776;SDS011;9517;51.174;4.160;2023-11-21T05:09:26;61.70;;;29.33;;
18776;SDS011;9517;51.174;4.160;2023-11-21T05:11:57;63.30;;;28.30;;
18776;SDS011;9517;51.174;4.160;2023-11-21T05:14:25;63.70;;;28.33;;
18776;SDS011;9517;51.174;4.160;2023-11-21T05:16:54;63.03;;;28.33;;
18776;SDS011;9517;51.174;4.160;2023-11-21T05:19:21;70.07;;;29.10;;
18776;SDS011;9517;51.174;4.160;2023-11-21T05:21:49;62.57;;;28.17;;
18776;SDS011;9517;51.174;4.160;2023-11-21T05:24:16;60.27;;;28.60;;
18776;SDS011;9517;51.174;4.160;2023-11-21T05:26:43;62.10;;;27.50;;
18776;SDS011;9517;51.174;4.160;2023-11-21T05:29:11;62.43;;;27.93;;
18776;SDS011;9517;51.174;4.160;2023-11-21T05:31:38;61.67;;;27.23;;
18776;SDS011;9517;51.174;4.160;2023-11-21T05:34:06;58.70;;;28.17;;
18776;SDS011;9517;51.174;4.160;2023-11-21T05:36:34;65.07;;;28.00;;
18776;SDS011;9517;51.174;4.160;2023-11-21T05:39:01;67.07;;;28.37;;
18776;SDS011;9517;51.174;4.160;2023-11-21T05:41:28;63.30;;;28.30;;
18776;SDS011;9517;51.174;4.160;2023-11-21T05:43:55;55.77;;;28.37;;
18776;SDS011;9517;51.174;4.160;2023-11-21T05:46:22;64.60;;;28.50;;
18776;SDS011;9517;51.174;4.160;2023-11-21T05:48:49;65.83;;;28.63;;
18776;SDS011;9517;51.174;4.160;2023-11-21T05:51:18;60.13;;;27.30;;
18776;SDS011;9517;51.174;4.160;2023-11-21T05:53:45;60.63;;;28.17;;
18776;SDS011;9517;51.174;4.160;2023-11-21T05:56:12;62.50;;;27.77;;
18776;SDS011;9517;51.174;4.160;2023-11-21T05:58:39;66.37;;;28.67;;
18776;SDS011;9517;51.174;4.160;2023-11-21T06:01:06;63.33;;;28.40;;
18776;SDS011;9517;51.174;4.160;2023-11-21T06:03:34;61.23;;;28.07;;
18776;SDS011;9517;51.174;4.160;2023-11-21T06:06:02;59.33;;;29.00;;
18776;SDS011;9517;51.174;4.160;2023-11-21T06:08:34;64.97;;;29.10;;
18776;SDS011;9517;51.174;4.160;2023-11-21T06:11:01;71.50;;;32.57;;
18776;SDS011;9517;51.174;4.160;2023-11-21T06:13:28;70.53;;;27.50;;
18776;SDS011;9517;51.174;4.160;2023-11-21T06:15:56;70.40;;;28.27;;
18776;SDS011;9517;51.174;4.160;2023-11-21T06:18:23;68.67;;;30.37;;
18776;SDS011;9517;51.174;4.160;2023-11-21T06:20:50;58.20;;;27.20;;
18776;SDS011;9517;51.174;4.160;2023-11-21T06:23:18;64.87;;;29.20;;
18776;SDS011;9517;51.174;4.160;2023-11-21T06:25:47;62.57;;;28.83;;
18776;SDS011;9517;51.174;4.160;2023-11-21T06:28:14;68.47;;;28.10;;
18776;SDS011;9517;51.174;4.160;2023-11-21T06:30:43;70.40;;;29.10;;
18776;SDS011;9517;51.174;4.160;2023-11-21T06:33:10;68.93;;;30.07;;
18776;SDS011;9517;51.174;4.160;2023-11-21T06:35:37;75.13;;;29.93;;
18776;SDS011;9517;51.174;4.160;2023-11-21T06:38:05;77.90;;;30.43;;
18776;SDS011;9517;51.174;4.160;2023-11-21T06:40:32;83.17;;;30.43;;
18776;SDS011;9517;51.174;4.160;2023-11-21T06:43:01;77.57;;;31.27;;
18776;SDS011;9517;51.174;4.160;2023-11-21T06:45:30;78.80;;;30.97;;
18776;SDS011;9517;51.174;4.160;2023-11-21T06:47:57;80.97;;;29.93;;
18776;SDS011;9517;51.174;4.160;2023-11-21T06:50:25;81.70;;;30.93;;
18776;SDS011;9517;51.174;4.160;2023-11-21T06:52:53;80.13;;;30.30;;
18776;SDS011;9517;51.174;4.160;2023-11-21T06:55:20;80.03;;;29.47;;
18776;SDS011;9517;51.174;4.160;2023-11-21T06:57:47;67.00;;;28.10;;
18776;SDS011;9517;51.174;4.160;2023-11-21T07:00:17;65.27;;;27.60;;
18776;SDS011;9517;51.174;4.160;2023-11-21T07:02:44;68.47;;;28.60;;
18776;SDS011;9517;51.174;4.160;2023-11-21T07:05:11;59.23;;;26.87;;
18776;SDS011;9517;51.174;4.160;2023-11-21T07:07:39;65.43;;;29.23;;
18776;SDS011;9517;51.174;4.160;2023-11-21T07:10:07;67.73;;;28.60;;
18776;SDS011;9517;51.174;4.160;2023-11-21T07:12:34;69.93;;;30.13;;
18776;SDS011;9517;51.174;4.160;2023-11-21T07:15:01;76.77;;;28.40;;
18776;SDS011;9517;51.174;4.160;2023-11-21T07:17:32;63.93;;;27.17;;
18776;SDS011;9517;51.174;4.160;2023-11-21T07:20:00;69.07;;;28.37;;
18776;SDS011;9517;51.174;4.160;2023-11-21T07:22:28;83.13;;;30.03;;
18776;SDS011;9517;51.174;4.160;2023-11-21T07:24:55;90.87;;;30.60;;
18776;SDS011;9517;51.174;4.160;2023-11-21T07:27:22;74.70;;;28.37;;
18776;SDS011;9517;51.174;4.160;2023-11-21T07:29:49;82.57;;;29.07;;
18776;SDS011;9517;51.174;4.160;2023-11-21T07:32:17;80.03;;;28.87;;
18776;SDS011;9517;51.174;4.160;2023-11-21T07:34:45;77.33;;;29.43;;
18776;SDS011;9517;51.174;4.160;2023-11-21T07:37:12;80.93;;;29.40;;
18776;SDS011;9517;51.174;4.160;2023-11-21T07:39:39;81.13;;;29.33;;
18776;SDS011;9517;51.174;4.160;2023-11-21T07:42:07;86.73;;;29.33;;
18776;SDS011;9517;51.174;4.160;2023-11-21T07:44:36;92.37;;;29.00;;
18776;SDS011;9517;51.174;4.160;2023-11-21T07:47:03;80.40;;;28.47;;
18776;SDS011;9517;51.174;4.160;2023-11-21T07:49:30;75.37;;;28.63;;
18776;SDS011;9517;51.174;4.160;2023-11-21T07:51:58;77.10;;;27.20;;
18776;SDS011;9517;51.174;4.160;2023-11-21T07:54:25;74.83;;;26.43;;
18776;SDS011;9517;51.174;4.160;2023-11-21T07:56:53;68.07;;;25.83;;
18776;SDS011;9517;51.174;4.160;2023-11-21T07:59:19;72.67;;;26.43;;
18776;SDS011;9517;51.174;4.160;2023-11-21T08:01:47;62.27;;;23.47;;
18776;SDS011;9517;51.174;4.160;2023-11-21T08:04:15;57.67;;;22.23;;
18776;SDS011;9517;51.174;4.160;2023-11-21T08:06:42;53.23;;;23.23;;
18776;SDS011;9517;51.174;4.160;2023-11-21T08:09:10;54.17;;;22.03;;
18776;SDS011;9517;51.174;4.160;2023-11-21T08:11:38;57.63;;;21.80;;
18776;SDS011;9517;51.174;4.160;2023-11-21T08:14:05;53.47;;;21.70;;
18776;SDS011;9517;51.174;4.160;2023-11-21T08:16:32;57.93;;;22.27;;
18776;SDS011;9517;51.174;4.160;2023-11-21T08:18:59;53.77;;;21.80;;
18776;SDS011;9517;51.174;4.160;2023-11-21T08:21:27;49.07;;;20.70;;
18776;SDS011;9517;51.174;4.160;2023-11-21T08:23:55;55.13;;;21.00;;
18776;SDS011;9517;51.174;4.160;2023-11-21T08:26:23;49.33;;;19.03;;
18776;SDS011;9517;51.174;4.160;2023-11-21T08:28:50;51.93;;;20.63;;
18776;SDS011;9517;51.174;4.160;2023-11-21T08:31:23;52.50;;;20.00;;
18776;SDS011;9517;51.174;4.160;2023-11-21T08:33:51;49.57;;;21.03;;
18776;SDS011;9517;51.174;4.160;2023-11-21T08:36:20;43.20;;;18.03;;
18776;SDS011;9517;51.174;4.160;2023-11-21T08:38:48;46.10;;;17.57;;
18776;SDS011;9517;51.174;4.160;2023-11-21T08:41:17;42.87;;;18.37;;
18776;SDS011;9517;51.174;4.160;2023-11-21T08:43:47;45.50;;;17.90;;
18776;SDS011;9517;51.174;4.160;2023-11-21T08:46:16;42.03;;;17.53;;
18776;SDS011;9517;51.174;4.160;2023-11-21T08:48:43;40.03;;;16.43;;
18776;SDS011;9517;51.174;4.160;2023-11-21T08:51:11;39.93;;;16.27;;
18776;SDS011;9517;51.174;4.160;2023-11-21T08:53:39;33.03;;;15.60;;
18776;SDS011;9517;51.174;4.160;2023-11-21T08:56:06;43.17;;;16.73;;
18776;SDS011;9517;51.174;4.160;2023-11-21T08:58:35;35.47;;;15.40;;
18776;SDS011;9517;51.174;4.160;2023-11-21T09:01:05;35.50;;;15.00;;
18776;SDS011;9517;51.174;4.160;2023-11-21T09:03:32;31.80;;;14.23;;
18776;SDS011;9517;51.174;4.160;2023-11-21T09:06:00;29.90;;;13.60;;
18776;SDS011;9517;51.174;4.160;2023-11-21T09:08:27;34.43;;;13.43;;
18776;SDS011;9517;51.174;4.160;2023-11-21T09:10:54;36.07;;;13.00;;
18776;SDS011;9517;51.174;4.160;2023-11-21T09:13:22;31.53;;;13.07;;
18776;SDS011;9517;51.174;4.160;2023-11-21T09:15:50;31.33;;;12.50;;
18776;SDS011;9517;51.174;4.160;2023-11-21T09:18:19;25.90;;;13.00;;
18776;SDS011;9517;51.174;4.160;2023-11-21T09:20:46;27.20;;;11.93;;
18776;SDS011;9517;51.174;4.160;2023-11-21T09:23:13;31.33;;;12.63;;
18776;SDS011;9517;51.174;4.160;2023-11-21T09:25:41;27.07;;;12.47;;
18776;SDS011;9517;51.174;4.160;2023-11-21T09:28:11;25.33;;;11.57;;
18776;SDS011;9517;51.174;4.160;2023-11-21T09:30:38;25.00;;;12.10;;
18776;SDS011;9517;51.174;4.160;2023-11-21T09:33:05;22.93;;;10.93;;
18776;SDS011;9517;51.174;4.160;2023-11-21T09:35:37;24.97;;;10.97;;
18776;SDS011;9517;51.174;4.160;2023-11-21T09:38:04;18.93;;;10.07;;
18776;SDS011;9517;51.174;4.160;2023-11-21T09:40:35;25.67;;;10.77;;
18776;SDS011;9517;51.174;4.160;2023-11-21T09:43:04;23.97;;;11.33;;
18776;SDS011;9517;51.174;4.160;2023-11-21T09:45:41;24.03;;;10.83;;
18776;SDS011;9517;51.174;4.160;2023-11-21T09:48:12;25.03;;;10.47;;
18776;SDS011;9517;51.174;4.160;2023-11-21T09:50:43;22.20;;;9.83;;
18776;SDS011;9517;51.174;4.160;2023-11-21T09:53:13;22.90;;;10.10;;
18776;SDS011;9517;51.174;4.160;2023-11-21T09:55:46;22.20;;;9.80;;
18776;SDS011;9517;51.174;4.160;2023-11-21T09:58:15;18.77;;;9.57;;
18776;SDS011;9517;51.174;4.160;2023-11-21T10:00:44;20.80;;;8.80;;
18776;SDS011;9517;51.174;4.160;2023-11-21T10:03:13;17.97;;;9.10;;
18776;SDS011;9517;51.174;4.160;2023-11-21T10:05:43;19.83;;;8.30;;
18776;SDS011;9517;51.174;4.160;2023-11-21T10:08:12;17.40;;;7.30;;
18776;SDS011;9517;51.174;4.160;2023-11-21T10:10:42;14.63;;;6.77;;
18776;SDS011;9517;51.174;4.160;2023-11-21T10:13:11;25.03;;;6.90;;
18776;SDS011;9517;51.174;4.160;2023-11-21T10:15:41;18.50;;;6.80;;
18776;SDS011;9517;51.174;4.160;2023-11-21T10:18:13;17.83;;;6.77;;
18776;SDS011;9517;51.174;4.160;2023-11-21T10:20:41;16.37;;;6.87;;
18776;SDS011;9517;51.174;4.160;2023-11-21T10:23:12;15.07;;;5.83;;
18776;SDS011;9517;51.174;4.160;2023-11-21T10:25:41;16.67;;;5.90;;
18776;SDS011;9517;51.174;4.160;2023-11-21T10:28:08;15.87;;;5.83;;
18776;SDS011;9517;51.174;4.160;2023-11-21T10:30:37;15.97;;;5.17;;
18776;SDS011;9517;51.174;4.160;2023-11-21T10:33:05;13.93;;;4.97;;
18776;SDS011;9517;51.174;4.160;2023-11-21T10:35:42;20.10;;;4.33;;
18776;SDS011;9517;51.174;4.160;2023-11-21T10:38:17;17.00;;;4.40;;
18776;SDS011;9517;51.174;4.160;2023-11-21T10:40:46;19.57;;;4.23;;
18776;SDS011;9517;51.174;4.160;2023-11-21T10:43:14;15.73;;;4.50;;
18776;SDS011;9517;51.174;4.160;2023-11-21T10:45:42;18.27;;;4.43;;
18776;SDS011;9517;51.174;4.160;2023-11-21T10:48:09;17.87;;;4.23;;
18776;SDS011;9517;51.174;4.160;2023-11-21T10:50:40;14.13;;;3.87;;
18776;SDS011;9517;51.174;4.160;2023-11-21T10:53:08;13.00;;;3.57;;
18776;SDS011;9517;51.174;4.160;2023-11-21T10:55:38;16.67;;;3.83;;
18776;SDS011;9517;51.174;4.160;2023-11-21T10:58:06;18.23;;;4.03;;
18776;SDS011;9517;51.174;4.160;2023-11-21T11:00:36;12.93;;;3.63;;
18776;SDS011;9517;51.174;4.160;2023-11-21T11:03:06;16.07;;;4.00;;
18776;SDS011;9517;51.174;4.160;2023-11-21T11:05:38;15.93;;;3.30;;
18776;SDS011;9517;51.174;4.160;2023-11-21T11:08:11;18.57;;;4.20;;
18776;SDS011;9517;51.174;4.160;2023-11-21T11:10:45;14.20;;;4.00;;
18776;SDS011;9517;51.174;4.160;2023-11-21T11:13:13;13.20;;;3.90;;
18776;SDS011;9517;51.174;4.160;2023-11-21T11:15:41;13.83;;;3.93;;
18776;SDS011;9517;51.174;4.160;2023-11-21T11:18:09;12.17;;;3.70;;
18776;SDS011;9517;51.174;4.160;2023-11-21T11:20:37;17.87;;;4.37;;
18776;SDS011;9517;51.174;4.160;2023-11-21T11:23:10;13.77;;;3.33;;
18776;SDS011;9517;51.174;4.160;2023-11-21T11:25:57;16.50;;;3.77;;
18776;SDS011;9517;51.174;4.160;2023-11-21T11:28:35;18.73;;;3.70;;
18776;SDS011;9517;51.174;4.160;2023-11-21T11:31:11;17.77;;;3.87;;
18776;SDS011;9517;51.174;4.160;2023-11-21T11:33:51;16.17;;;3.77;;
18776;SDS011;9517;51.174;4.160;2023-11-21T11:36:24;15.63;;;3.93;;
18776;SDS011;9517;51.174;4.160;2023-11-21T11:38:55;14.70;;;4.27;;
18776;SDS011;9517;51.174;4.160;2023-11-21T11:41:25;16.20;;;4.53;;
18776;SDS011;9517;51.174;4.160;2023-11-21T11:43:54;13.00;;;4.50;;
18776;SDS011;9517;51.174;4.160;2023-11-21T11:46:27;14.83;;;5.27;;
18776;SDS011;9517;51.174;4.160;2023-11-21T11:49:07;14.73;;;5.13;;
18776;SDS011;9517;51.174;4.160;2023-11-21T11:51:35;11.53;;;4.80;;
18776;SDS011;9517;51.174;4.160;2023-11-21T11:54:02;15.23;;;5.50;;
18776;SDS011;9517;51.174;4.160;2023-11-21T11:56:33;14.73;;;5.07;;
18776;SDS011;9517;51.174;4.160;2023-11-21T11:59:03;14.47;;;4.97;;
18776;SDS011;9517;51.174;4.160;2023-11-21T12:01:34;11.20;;;4.50;;
18776;SDS011;9517;51.174;4.160;2023-11-21T12:06:59;17.90;;;5.70;;
18776;SDS011;9517;51.174;4.160;2023-11-21T12:09:28;12.77;;;5.57;;
18776;SDS011;9517;51.174;4.160;2023-11-21T12:11:58;17.60;;;6.07;;
18776;SDS011;9517;51.174;4.160;2023-11-21T12:14:26;16.90;;;6.63;;
18776;SDS011;9517;51.174;4.160;2023-11-21T12:16:54;13.00;;;6.10;;
18776;SDS011;9517;51.174;4.160;2023-11-21T12:19:21;15.23;;;6.60;;
18776;SDS011;9517;51.174;4.160;2023-11-21T12:21:49;14.87;;;7.83;;
18776;SDS011;9517;51.174;4.160;2023-11-21T12:24:17;18.33;;;7.87;;
18776;SDS011;9517;51.174;4.160;2023-11-21T12:26:44;15.93;;;7.87;;
18776;SDS011;9517;51.174;4.160;2023-11-21T12:29:12;17.07;;;8.70;;
18776;SDS011;9517;51.174;4.160;2023-11-21T12:31:41;18.97;;;8.90;;
18776;SDS011;9517;51.174;4.160;2023-11-21T12:34:09;18.43;;;8.70;;
18776;SDS011;9517;51.174;4.160;2023-11-21T12:36:37;17.67;;;8.43;;
18776;SDS011;9517;51.174;4.160;2023-11-21T12:39:05;16.33;;;8.77;;
18776;SDS011;9517;51.174;4.160;2023-11-21T12:41:34;20.00;;;9.80;;
18776;SDS011;9517;51.174;4.160;2023-11-21T12:44:01;20.43;;;9.40;;
18776;SDS011;9517;51.174;4.160;2023-11-21T12:46:30;20.13;;;10.13;;
18776;SDS011;9517;51.174;4.160;2023-11-21T12:48:59;20.67;;;10.30;;
18776;SDS011;9517;51.174;4.160;2023-11-21T12:51:26;20.33;;;9.33;;
18776;SDS011;9517;51.174;4.160;2023-11-21T12:53:54;18.93;;;10.60;;
18776;SDS011;9517;51.174;4.160;2023-11-21T12:56:23;21.00;;;11.30;;
18776;SDS011;9517;51.174;4.160;2023-11-21T12:58:53;18.10;;;9.50;;
18776;SDS011;9517;51.174;4.160;2023-11-21T13:01:25;19.57;;;9.60;;
18776;SDS011;9517;51.174;4.160;2023-11-21T13:03:56;17.63;;;9.00;;
18776;SDS011;9517;51.174;4.160;2023-11-21T13:06:25;18.13;;;8.70;;
18776;SDS011;9517;51.174;4.160;2023-11-21T13:08:52;19.10;;;8.73;;
18776;SDS011;9517;51.174;4.160;2023-11-21T13:11:22;19.27;;;9.20;;
18776;SDS011;9517;51.174;4.160;2023-11-21T13:13:51;19.37;;;8.63;;
18776;SDS011;9517;51.174;4.160;2023-11-21T13:16:19;21.03;;;8.53;;
18776;SDS011;9517;51.174;4.160;2023-11-21T13:18:46;17.40;;;7.40;;
18776;SDS011;9517;51.174;4.160;2023-11-21T13:21:15;18.33;;;7.37;;
18776;SDS011;9517;51.174;4.160;2023-11-21T13:23:43;15.57;;;6.93;;
18776;SDS011;9517;51.174;4.160;2023-11-21T13:26:11;19.30;;;7.20;;
18776;SDS011;9517;51.174;4.160;2023-11-21T13:28:39;19.63;;;7.17;;
18776;SDS011;9517;51.174;4.160;2023-11-21T13:31:11;14.40;;;5.57;;
18776;SDS011;9517;51.174;4.160;2023-11-21T13:33:48;15.87;;;6.30;;
18776;SDS011;9517;51.174;4.160;2023-11-21T13:36:21;16.80;;;6.37;;
18776;SDS011;9517;51.174;4.160;2023-11-21T13:38:49;14.43;;;6.13;;
18776;SDS011;9517;51.174;4.160;2023-11-21T13:41:17;15.80;;;6.30;;
18776;SDS011;9517;51.174;4.160;2023-11-21T13:43:45;15.30;;;5.60;;
18776;SDS011;9517;51.174;4.160;2023-11-21T13:46:20;15.00;;;6.17;;
18776;SDS011;9517;51.174;4.160;2023-11-21T13:48:48;16.10;;;6.63;;
18776;SDS011;9517;51.174;4.160;2023-11-21T13:51:22;16.23;;;6.67;;
18776;SDS011;9517;51.174;4.160;2023-11-21T13:53:56;18.80;;;8.20;;
18776;SDS011;9517;51.174;4.160;2023-11-21T13:56:24;18.87;;;8.30;;
18776;SDS011;9517;51.174;4.160;2023-11-21T13:58:53;18.17;;;7.40;;
18776;SDS011;9517;51.174;4.160;2023-11-21T14:01:22;19.43;;;7.43;;
18776;SDS011;9517;51.174;4.160;2023-11-21T14:04:07;17.97;;;6.30;;
18776;SDS011;9517;51.174;4.160;2023-11-21T14:06:45;16.50;;;6.30;;
18776;SDS011;9517;51.174;4.160;2023-11-21T14:09:14;15.00;;;6.20;;
18776;SDS011;9517;51.174;4.160;2023-11-21T14:11:48;14.50;;;5.73;;
18776;SDS011;9517;51.174;4.160;2023-11-21T14:14:17;15.57;;;5.97;;
18776;SDS011;9517;51.174;4.160;2023-11-21T14:16:44;15.97;;;6.57;;
18776;SDS011;9517;51.174;4.160;2023-11-21T14:19:11;17.07;;;7.27;;
18776;SDS011;9517;51.174;4.160;2023-11-21T14:21:41;15.57;;;6.70;;
18776;SDS011;9517;51.174;4.160;2023-11-21T14:24:10;15.27;;;6.67;;
18776;SDS011;9517;51.174;4.160;2023-11-21T14:26:39;18.63;;;7.23;;
18776;SDS011;9517;51.174;4.160;2023-11-21T14:29:07;18.37;;;7.60;;
18776;SDS011;9517;51.174;4.160;2023-11-21T14:31:37;17.33;;;8.10;;
18776;SDS011;9517;51.174;4.160;2023-11-21T14:34:06;18.27;;;7.60;;
18776;SDS011;9517;51.174;4.160;2023-11-21T14:36:33;20.57;;;7.80;;
18776;SDS011;9517;51.174;4.160;2023-11-21T14:39:01;19.97;;;8.13;;
18776;SDS011;9517;51.174;4.160;2023-11-21T14:41:33;18.60;;;8.53;;
18776;SDS011;9517;51.174;4.160;2023-11-21T14:44:01;17.67;;;8.13;;
18776;SDS011;9517;51.174;4.160;2023-11-21T14:46:29;19.13;;;9.00;;
18776;SDS011;9517;51.174;4.160;2023-11-21T14:48:56;21.53;;;9.27;;